createdAt,value
2019-01-21T07:51:43.930Z,4.90
2019-01-21T07:52:43.883Z,32.30
2019-01-21T07:53:43.867Z,54.30
2019-01-21T07:54:43.867Z,36.30
2019-01-21T07:55:43.828Z,29.60
2019-01-21T07:56:43.814Z,26.40
2019-01-21T07:57:43.806Z,20.60
2019-01-21T07:58:43.806Z,19.80
2019-01-21T07:59:43.810Z,21.30
2019-01-21T08:00:43.791Z,40.50
2019-01-21T08:01:43.760Z,29.50
2019-01-21T08:02:43.797Z,29.30
2019-01-21T08:03:43.754Z,37.50
2019-01-21T08:04:43.742Z,33.70
2019-01-21T08:05:43.719Z,28.70
2019-01-21T08:06:43.725Z,25.00
2019-01-21T08:07:43.696Z,30.10
2019-01-21T08:08:43.716Z,35.70
2019-01-21T08:09:43.725Z,32.60
2019-01-21T08:10:43.671Z,29.30
2019-01-21T08:11:43.654Z,39.10
2019-01-21T08:12:43.656Z,50.20
2019-01-21T08:13:43.661Z,50.60
2019-01-21T08:14:43.633Z,43.80
2019-01-21T08:15:43.614Z,46.20
2019-01-21T08:16:43.622Z,69.40
2019-01-21T08:17:43.589Z,82.10
2019-01-21T08:18:43.620Z,61.80
2019-01-21T08:19:43.557Z,57.00
2019-01-21T08:20:43.576Z,44.00
2019-01-21T08:21:43.539Z,59.50
2019-01-21T08:22:43.537Z,66.70
2019-01-21T08:23:43.534Z,61.40
2019-01-21T08:24:43.511Z,48.80
2019-01-21T08:25:43.514Z,48.20
2019-01-21T08:26:43.492Z,49.90
2019-01-21T08:27:43.466Z,48.50
2019-01-21T08:28:43.495Z,37.30
2019-01-21T08:29:43.456Z,29.30
2019-01-21T08:30:43.455Z,32.30
2019-01-21T08:31:43.428Z,28.50
2019-01-21T08:32:43.424Z,23.40
2019-01-21T08:33:43.420Z,24.20
2019-01-21T08:34:43.404Z,20.80
2019-01-21T08:35:43.394Z,18.60
2019-01-21T08:36:43.417Z,18.10
2019-01-21T08:37:43.356Z,18.80
2019-01-21T08:38:43.374Z,15.30
2019-01-21T08:39:43.347Z,17.20
2019-01-21T08:40:43.344Z,15.70
2019-01-21T08:41:43.334Z,17.80
2019-01-21T08:42:43.325Z,19.30
2019-01-21T08:43:43.295Z,16.60
2019-01-21T08:44:43.286Z,15.60
2019-01-21T08:45:43.271Z,15.40
2019-01-21T08:46:43.304Z,16.10
2019-01-21T08:47:43.257Z,15.70
2019-01-21T08:48:43.248Z,14.80
2019-01-21T08:49:43.225Z,15.70
2019-01-21T08:50:43.226Z,15.70
2019-01-21T08:51:43.218Z,15.00
2019-01-21T08:52:43.204Z,16.00
2019-01-21T08:53:43.191Z,15.00
2019-01-21T08:54:43.212Z,14.90
2019-01-21T08:55:43.159Z,16.40
2019-01-21T08:56:43.221Z,17.10
2019-01-21T08:57:43.136Z,16.90
2019-01-21T08:58:43.190Z,16.40
2019-01-21T08:59:43.141Z,16.80
2019-01-21T09:00:43.152Z,17.00
2019-01-21T09:01:43.096Z,17.20
2019-01-21T09:02:43.162Z,15.50
2019-01-21T09:03:43.066Z,14.90
2019-01-21T09:04:43.099Z,16.00
2019-01-21T09:05:43.075Z,15.60
2019-01-21T09:06:43.067Z,15.20
2019-01-21T09:07:43.047Z,15.80
2019-01-21T09:08:43.124Z,15.80
2019-01-21T09:09:42.996Z,16.00
2019-01-21T09:10:43.330Z,14.70
2019-01-21T09:11:42.978Z,16.70
2019-01-21T09:12:43.000Z,15.00
2019-01-21T09:13:42.960Z,15.90
2019-01-21T09:14:43.080Z,15.60
2019-01-21T09:15:42.936Z,14.80
2019-01-21T09:16:43.011Z,15.80
2019-01-21T09:17:42.930Z,16.60
2019-01-21T09:18:42.970Z,16.90
2019-01-21T09:19:42.906Z,16.30
2019-01-21T09:20:42.940Z,16.40
2019-01-21T09:21:42.880Z,15.90
2019-01-21T09:22:42.906Z,15.30
2019-01-21T09:23:42.848Z,15.80
2019-01-21T09:24:42.911Z,15.80
2019-01-21T09:25:42.824Z,16.50
2019-01-21T09:26:42.821Z,16.30
2019-01-21T09:27:42.804Z,21.70
2019-01-21T09:28:43.867Z,20.70
2019-01-21T09:29:42.780Z,20.20
2019-01-21T09:30:42.885Z,18.30
2019-01-21T09:31:42.756Z,17.10
2019-01-21T09:32:42.850Z,16.70
2019-01-21T09:33:42.755Z,25.30
2019-01-21T09:34:42.818Z,30.70
2019-01-21T09:35:42.731Z,35.10
2019-01-21T09:36:42.794Z,29.50
2019-01-21T09:37:42.682Z,24.00
2019-01-21T09:38:42.750Z,22.40
2019-01-21T09:39:42.679Z,21.50
2019-01-21T09:40:42.763Z,32.00
2019-01-21T09:41:43.545Z,31.30
2019-01-21T09:42:42.692Z,24.00
2019-01-21T09:43:42.628Z,21.50
2019-01-21T09:44:42.655Z,28.00
2019-01-21T09:45:42.640Z,21.20
2019-01-21T09:46:42.628Z,21.70
2019-01-21T09:47:42.582Z,27.80
2019-01-21T09:48:42.703Z,22.40
2019-01-21T09:49:43.856Z,21.50
2019-01-21T09:50:43.842Z,23.20
2019-01-21T09:51:42.536Z,21.80
2019-01-21T09:52:42.636Z,19.10
2019-01-21T09:53:42.504Z,18.70
2019-01-21T09:54:42.664Z,18.80
2019-01-21T09:55:42.482Z,19.70
2019-01-21T09:56:42.578Z,18.10
2019-01-21T09:57:42.466Z,19.80
2019-01-21T09:58:42.536Z,21.00
2019-01-21T09:59:42.461Z,19.10
2019-01-21T10:00:42.555Z,19.20
2019-01-21T10:01:42.424Z,18.40
2019-01-21T10:02:42.471Z,16.70
2019-01-21T10:03:42.400Z,17.30
2019-01-21T10:04:42.444Z,16.80
2019-01-21T10:05:42.395Z,16.80
2019-01-21T10:06:42.406Z,18.30
2019-01-21T10:07:42.350Z,20.10
2019-01-21T10:08:42.378Z,19.40
2019-01-21T10:09:42.332Z,21.20
2019-01-21T10:10:42.375Z,18.80
2019-01-21T10:11:42.308Z,18.80
2019-01-21T10:12:42.418Z,19.40
2019-01-21T10:13:42.286Z,17.20
2019-01-21T10:14:42.383Z,18.00
2019-01-21T10:15:42.274Z,16.60
2019-01-21T10:16:43.268Z,16.60
2019-01-21T10:17:42.252Z,17.00
2019-01-21T10:18:42.326Z,16.70
2019-01-21T10:19:42.215Z,17.50
2019-01-21T10:20:42.324Z,16.10
2019-01-21T10:21:42.202Z,19.10
2019-01-21T10:22:42.254Z,18.50
2019-01-21T10:23:42.173Z,16.70
2019-01-21T10:24:42.223Z,16.20
2019-01-21T10:25:42.177Z,20.20
2019-01-21T10:26:42.189Z,18.40
2019-01-21T10:27:42.126Z,16.90
2019-01-21T10:28:42.164Z,18.50
2019-01-21T10:29:42.108Z,16.80
2019-01-21T10:30:42.139Z,16.50
2019-01-21T10:31:42.104Z,16.50
2019-01-21T10:32:42.198Z,19.60
2019-01-21T10:33:42.061Z,20.80
2019-01-21T10:34:42.163Z,21.70
2019-01-21T10:35:42.042Z,18.60
2019-01-21T10:36:43.093Z,19.10
2019-01-21T10:37:42.016Z,19.10
2019-01-21T10:38:42.018Z,20.80
2019-01-21T10:39:42.002Z,17.70
2019-01-21T10:40:41.994Z,19.30
2019-01-21T10:41:41.993Z,20.20
2019-01-21T10:42:41.984Z,19.70
2019-01-21T10:43:41.949Z,19.40
2019-01-21T10:44:41.956Z,19.50
2019-01-21T10:45:41.928Z,16.50
2019-01-21T10:46:41.942Z,19.00
2019-01-21T10:47:41.912Z,18.60
2019-01-21T10:48:41.906Z,23.20
2019-01-21T10:49:41.882Z,38.40
2019-01-21T10:50:41.877Z,45.00
2019-01-21T10:51:41.878Z,46.90
2019-01-21T10:52:41.864Z,45.50
2019-01-21T10:53:41.832Z,40.70
2019-01-21T10:54:41.840Z,34.20
2019-01-21T10:55:41.815Z,31.00
2019-01-21T10:56:41.883Z,38.30
2019-01-21T10:57:41.795Z,32.40
2019-01-21T10:58:41.793Z,36.00
2019-01-21T10:59:41.777Z,28.60
2019-01-21T11:00:41.779Z,30.00
2019-01-21T11:01:41.748Z,20.70
2019-01-21T11:02:41.774Z,28.10
2019-01-21T11:03:41.731Z,28.80
2019-01-21T11:04:41.724Z,33.60
2019-01-21T11:05:41.706Z,36.40
2019-01-21T11:06:41.698Z,24.40
2019-01-21T11:07:41.694Z,26.20
2019-01-21T11:08:41.676Z,23.20
2019-01-21T11:09:41.660Z,20.60
2019-01-21T11:10:41.666Z,19.90
2019-01-21T11:11:41.634Z,20.10
2019-01-21T11:12:41.652Z,20.70
2019-01-21T11:13:41.627Z,20.80
2019-01-21T11:14:41.625Z,22.60
2019-01-21T11:15:41.602Z,19.80
2019-01-21T11:16:43.594Z,16.40
2019-01-21T11:17:41.607Z,17.90
2019-01-21T11:18:41.572Z,19.00
2019-01-21T11:19:41.559Z,18.30
2019-01-21T11:20:41.543Z,16.20
2019-01-21T11:21:41.525Z,14.60
2019-01-21T11:22:42.122Z,17.10
2019-01-21T11:23:41.506Z,24.20
2019-01-21T11:24:41.498Z,21.80
2019-01-21T11:25:41.481Z,24.10
2019-01-21T11:26:41.488Z,23.30
2019-01-21T11:27:41.471Z,23.40
2019-01-21T11:28:42.493Z,21.70
2019-01-21T11:29:41.442Z,21.60
2019-01-21T11:30:41.471Z,22.30
2019-01-21T11:31:41.417Z,20.80
2019-01-21T11:32:41.430Z,26.40
2019-01-21T11:33:41.392Z,24.20
2019-01-21T11:34:41.387Z,20.60
2019-01-21T11:35:41.374Z,19.10
2019-01-21T11:36:41.373Z,26.20
2019-01-21T11:37:41.404Z,24.70
2019-01-21T11:38:41.345Z,32.80
2019-01-21T11:39:41.328Z,38.20
2019-01-21T11:40:42.343Z,32.30
2019-01-21T11:41:41.300Z,40.80
2019-01-21T11:42:41.334Z,38.80
2019-01-21T11:43:41.282Z,32.40
2019-01-21T11:44:41.281Z,29.10
2019-01-21T11:45:41.259Z,27.40
2019-01-21T11:46:41.262Z,30.40
2019-01-21T11:47:41.239Z,30.00
2019-01-21T11:48:41.262Z,25.30
2019-01-21T11:49:41.215Z,31.00
2019-01-21T11:50:41.213Z,28.90
2019-01-21T11:51:41.195Z,23.50
2019-01-21T11:52:41.202Z,40.10
2019-01-21T11:53:41.190Z,31.50
2019-01-21T11:54:41.167Z,34.30
2019-01-21T11:55:41.147Z,33.80
2019-01-21T11:56:41.153Z,30.40
2019-01-21T11:57:41.126Z,30.80
2019-01-21T11:58:41.138Z,34.40
2019-01-21T11:59:41.101Z,33.80
2019-01-21T12:00:41.100Z,28.40
2019-01-21T12:01:41.080Z,34.70
2019-01-21T12:02:41.090Z,32.60
2019-01-21T12:03:41.081Z,28.30
2019-01-21T12:04:41.059Z,33.00
2019-01-21T12:05:41.031Z,27.20
2019-01-21T12:06:41.048Z,26.40
2019-01-21T12:07:41.023Z,23.70
2019-01-21T12:08:41.031Z,29.00
2019-01-21T12:09:41.013Z,32.20
2019-01-21T12:10:40.988Z,34.20
2019-01-21T12:11:40.973Z,28.70
2019-01-21T12:12:40.967Z,28.20
2019-01-21T12:13:40.963Z,24.30
2019-01-21T12:14:40.948Z,26.60
2019-01-21T12:15:40.934Z,25.00
2019-01-21T12:16:40.925Z,24.90
2019-01-21T12:17:40.899Z,27.30
2019-01-21T12:18:40.936Z,27.50
2019-01-21T12:19:40.882Z,26.10
2019-01-21T12:20:40.886Z,27.60
2019-01-21T12:21:40.859Z,27.80
2019-01-21T12:22:40.856Z,28.00
2019-01-21T12:23:40.854Z,23.90
2019-01-21T12:24:40.865Z,23.40
2019-01-21T12:25:40.809Z,24.20
2019-01-21T12:26:40.805Z,26.80
2019-01-21T12:27:40.799Z,23.90
2019-01-21T12:28:40.791Z,21.50
2019-01-21T12:29:40.783Z,24.30
2019-01-21T12:30:40.769Z,27.60
2019-01-21T12:31:40.745Z,23.80
2019-01-21T12:32:40.743Z,19.80
2019-01-21T12:33:40.729Z,20.90
2019-01-21T12:34:40.745Z,25.30
2019-01-21T12:35:40.712Z,23.50
2019-01-21T12:36:40.705Z,27.10
2019-01-21T12:37:40.678Z,31.20
2019-01-21T12:38:40.685Z,31.60
2019-01-21T12:39:40.677Z,30.90
2019-01-21T12:40:40.649Z,32.10
2019-01-21T12:41:40.638Z,28.10
2019-01-21T12:42:40.633Z,27.60
2019-01-21T12:43:40.614Z,29.80
2019-01-21T12:44:41.628Z,32.70
2019-01-21T12:45:40.587Z,38.50
2019-01-21T12:46:40.625Z,35.60
2019-01-21T12:47:40.569Z,23.30
2019-01-21T12:48:40.566Z,45.60
2019-01-21T12:49:40.565Z,59.70
2019-01-21T12:50:40.547Z,60.50
2019-01-21T12:51:40.523Z,60.70
2019-01-21T12:52:40.515Z,59.60
2019-01-21T12:53:40.500Z,62.30
2019-01-21T12:54:40.529Z,61.10
2019-01-21T12:55:40.477Z,66.80
2019-01-21T12:56:40.475Z,122.80
2019-01-21T12:57:40.457Z,104.90
2019-01-21T12:58:40.459Z,108.60
2019-01-21T12:59:40.430Z,106.70
2019-01-21T13:00:40.453Z,103.10
2019-01-21T13:01:40.413Z,96.70
2019-01-21T13:02:40.413Z,96.60
2019-01-21T13:03:40.384Z,87.50
2019-01-21T13:04:40.387Z,78.10
2019-01-21T13:05:40.383Z,71.50
2019-01-21T13:06:40.356Z,69.50
2019-01-21T13:07:40.343Z,61.30
2019-01-21T13:08:40.355Z,64.20
2019-01-21T13:09:40.319Z,48.60
2019-01-21T13:10:40.332Z,43.80
2019-01-21T13:11:40.297Z,27.00
2019-01-21T13:12:40.309Z,34.40
2019-01-21T13:13:40.277Z,41.10
2019-01-21T13:14:40.283Z,40.60
2019-01-21T13:15:40.286Z,55.00
2019-01-21T13:16:40.252Z,54.00
2019-01-21T13:17:40.236Z,58.30
2019-01-21T13:18:40.234Z,55.60
2019-01-21T13:19:40.205Z,56.20
2019-01-21T13:20:40.244Z,57.80
2019-01-21T13:21:40.187Z,47.40
2019-01-21T13:22:40.187Z,47.30
2019-01-21T13:23:40.166Z,47.10
2019-01-21T13:24:40.170Z,37.00
2019-01-21T13:25:40.158Z,51.10
2019-01-21T13:26:40.137Z,44.80
2019-01-21T13:27:40.141Z,52.80
2019-01-21T13:28:40.111Z,63.00
2019-01-21T13:29:40.094Z,50.20
2019-01-21T13:30:40.116Z,45.20
2019-01-21T13:31:40.072Z,44.60
2019-01-21T13:32:40.070Z,31.20
2019-01-21T13:33:40.073Z,36.40
2019-01-21T13:34:40.051Z,36.40
2019-01-21T13:35:40.055Z,39.90
2019-01-21T13:36:40.033Z,48.40
2019-01-21T13:37:40.008Z,34.60
2019-01-21T13:38:40.005Z,35.10
2019-01-21T13:39:39.982Z,32.20
2019-01-21T13:40:40.018Z,30.70
2019-01-21T13:41:39.965Z,29.80
2019-01-21T13:42:39.982Z,36.20
2019-01-21T13:43:39.938Z,31.70
2019-01-21T13:44:39.935Z,34.20
2019-01-21T13:45:39.924Z,29.90
2019-01-21T13:46:39.928Z,27.60
2019-01-21T13:47:39.900Z,39.70
2019-01-21T13:48:39.900Z,33.60
2019-01-21T13:49:39.880Z,41.30
2019-01-21T13:50:39.870Z,42.10
2019-01-21T13:51:39.873Z,47.60
2019-01-21T13:52:39.852Z,41.20
2019-01-21T13:53:39.828Z,54.70
2019-01-21T13:54:39.832Z,44.00
2019-01-21T13:55:39.803Z,49.20
2019-01-21T13:56:39.833Z,50.30
2019-01-21T13:57:39.783Z,58.00
2019-01-21T13:58:39.795Z,76.60
2019-01-21T13:59:39.763Z,95.00
2019-01-21T14:00:39.756Z,72.30
2019-01-21T14:01:39.778Z,61.20
2019-01-21T14:02:40.738Z,29.60
2019-01-21T14:03:39.725Z,47.80
2019-01-21T14:04:39.725Z,39.00
2019-01-21T14:05:39.688Z,34.40
2019-01-21T14:06:39.728Z,49.90
2019-01-21T14:07:39.680Z,42.50
2019-01-21T14:08:39.679Z,30.00
2019-01-21T14:09:39.653Z,31.20
2019-01-21T14:10:39.650Z,37.40
2019-01-21T14:11:39.644Z,33.00
2019-01-21T14:12:39.630Z,31.90
2019-01-21T14:13:39.606Z,26.50
2019-01-21T14:14:39.598Z,31.10
2019-01-21T14:15:39.580Z,38.50
2019-01-21T14:16:39.607Z,35.90
2019-01-21T14:17:39.560Z,36.20
2019-01-21T14:18:39.567Z,39.60
2019-01-21T14:19:39.536Z,49.10
2019-01-21T14:20:43.603Z,31.70
2019-01-21T14:21:39.554Z,39.20
2019-01-21T14:22:39.518Z,40.70
2019-01-21T14:23:39.498Z,34.10
2019-01-21T14:24:39.495Z,32.70
2019-01-21T14:25:39.488Z,28.80
2019-01-21T14:26:39.466Z,33.10
2019-01-21T14:27:39.466Z,27.70
2019-01-21T14:28:39.453Z,30.60
2019-01-21T14:29:39.425Z,29.30
2019-01-21T14:30:39.424Z,29.90
2019-01-21T14:31:39.406Z,27.60
2019-01-21T14:32:39.431Z,30.80
2019-01-21T14:33:39.380Z,28.00
2019-01-21T14:34:39.388Z,30.00
2019-01-21T14:35:39.360Z,31.00
2019-01-21T14:36:39.359Z,26.80
2019-01-21T14:37:39.365Z,20.00
2019-01-21T14:38:39.337Z,26.10
2019-01-21T14:39:39.316Z,44.20
2019-01-21T14:40:39.313Z,30.10
2019-01-21T14:41:39.296Z,36.90
2019-01-21T14:42:39.324Z,30.50
2019-01-21T14:43:39.271Z,37.80
2019-01-21T14:44:39.263Z,39.10
2019-01-21T14:45:39.248Z,45.30
2019-01-21T14:46:39.247Z,56.80
2019-01-21T14:47:39.254Z,38.50
2019-01-21T14:48:39.238Z,31.70
2019-01-21T14:49:39.204Z,47.50
2019-01-21T14:50:39.207Z,34.30
2019-01-21T14:51:39.180Z,23.10
2019-01-21T14:52:39.197Z,31.30
2019-01-21T14:53:39.187Z,43.50
2019-01-21T14:54:39.268Z,38.20
2019-01-21T14:55:39.154Z,37.70
2019-01-21T14:56:39.231Z,38.70
2019-01-21T14:57:39.157Z,29.70
2019-01-21T14:58:39.192Z,44.90
2019-01-21T14:59:39.098Z,34.60
2019-01-21T15:00:39.154Z,33.00
2019-01-21T15:01:39.075Z,27.80
2019-01-21T15:02:39.063Z,32.60
2019-01-21T15:03:39.077Z,25.40
2019-01-21T15:04:39.121Z,25.00
2019-01-21T15:05:39.058Z,24.50
2019-01-21T15:06:39.089Z,26.90
2019-01-21T15:07:39.074Z,28.10
2019-01-21T15:08:39.067Z,20.60
2019-01-21T15:09:39.014Z,16.60
2019-01-21T15:10:39.124Z,18.60
2019-01-21T15:11:38.970Z,18.80
2019-01-21T15:12:39.073Z,19.70
2019-01-21T15:13:39.032Z,18.20
2019-01-21T15:14:39.106Z,17.00
2019-01-21T15:15:38.950Z,15.90
2019-01-21T15:16:39.015Z,14.80
2019-01-21T15:17:38.896Z,17.90
2019-01-21T15:18:38.972Z,18.10
2019-01-21T15:19:38.865Z,16.60
2019-01-21T15:20:38.940Z,16.00
2019-01-21T15:21:38.859Z,18.90
2019-01-21T15:22:38.908Z,19.70
2019-01-21T15:23:38.947Z,20.10
2019-01-21T15:24:38.822Z,19.60
2019-01-21T15:25:38.831Z,16.10
2019-01-21T15:26:38.871Z,20.30
2019-01-21T15:27:38.788Z,18.90
2019-01-21T15:28:38.846Z,16.40
2019-01-21T15:29:38.793Z,16.70
2019-01-21T15:30:38.783Z,16.60
2019-01-21T15:31:38.755Z,16.30
2019-01-21T15:32:38.770Z,18.20
2019-01-21T15:33:38.728Z,17.20
2019-01-21T15:34:38.816Z,16.70
2019-01-21T15:35:38.715Z,20.90
2019-01-21T15:36:38.870Z,17.20
2019-01-21T15:37:38.694Z,17.90
2019-01-21T15:38:38.891Z,15.70
2019-01-21T15:39:38.727Z,15.60
2019-01-21T15:40:38.828Z,15.80
2019-01-21T15:41:38.682Z,15.40
2019-01-21T15:42:38.768Z,16.30
2019-01-21T15:43:38.626Z,16.90
2019-01-21T15:44:38.723Z,15.30
2019-01-21T15:45:38.641Z,15.50
2019-01-21T15:46:39.702Z,16.60
2019-01-21T15:47:38.597Z,13.90
2019-01-21T15:48:38.596Z,16.50
2019-01-21T15:49:38.552Z,18.90
2019-01-21T15:50:38.564Z,27.10
2019-01-21T15:51:38.609Z,31.00
2019-01-21T15:52:38.705Z,37.00
2019-01-21T15:53:38.489Z,28.90
2019-01-21T15:54:38.530Z,28.40
2019-01-21T15:55:38.522Z,26.20
2019-01-21T15:56:38.570Z,26.70
2019-01-21T15:57:38.446Z,26.50
2019-01-21T15:58:38.539Z,23.60
2019-01-21T15:59:38.446Z,32.00
2019-01-21T16:00:38.504Z,33.10
2019-01-21T16:01:38.407Z,31.50
2019-01-21T16:02:38.471Z,30.20
2019-01-21T16:03:38.376Z,27.60
2019-01-21T16:04:38.480Z,28.70
2019-01-21T16:05:38.354Z,25.30
2019-01-21T16:06:38.352Z,26.40
2019-01-21T16:07:38.337Z,32.40
2019-01-21T16:08:38.374Z,32.60
2019-01-21T16:09:38.342Z,40.10
2019-01-21T16:10:38.346Z,35.40
2019-01-21T16:11:38.290Z,35.40
2019-01-21T16:12:38.318Z,49.20
2019-01-21T16:13:38.274Z,43.80
2019-01-21T16:14:38.317Z,43.30
2019-01-21T16:15:38.247Z,30.70
2019-01-21T16:16:38.353Z,28.80
2019-01-21T16:17:38.226Z,27.30
2019-01-21T16:18:38.322Z,23.50
2019-01-21T16:19:38.265Z,29.50
2019-01-21T16:20:38.300Z,27.80
2019-01-21T16:21:38.180Z,32.70
2019-01-21T16:22:38.252Z,36.50
2019-01-21T16:23:38.158Z,50.40
2019-01-21T16:24:38.258Z,45.50
2019-01-21T16:25:38.163Z,39.80
2019-01-21T16:26:38.224Z,48.30
2019-01-21T16:27:38.104Z,55.60
2019-01-21T16:28:38.158Z,55.70
2019-01-21T16:29:38.102Z,46.20
2019-01-21T16:30:38.126Z,60.40
2019-01-21T16:31:38.068Z,57.90
2019-01-21T16:32:38.095Z,62.40
2019-01-21T16:33:38.046Z,56.90
2019-01-21T16:34:39.130Z,61.10
2019-01-21T16:35:38.092Z,54.30
2019-01-21T16:36:38.033Z,42.20
2019-01-21T16:37:38.002Z,34.40
2019-01-21T16:38:38.099Z,48.60
2019-01-21T16:39:37.976Z,45.90
2019-01-21T16:40:38.113Z,45.00
2019-01-21T16:41:37.955Z,46.20
2019-01-21T16:42:38.036Z,48.20
2019-01-21T16:43:37.930Z,45.10
2019-01-21T16:44:38.021Z,41.60
2019-01-21T16:45:37.944Z,40.20
2019-01-21T16:46:37.975Z,30.80
2019-01-21T16:47:37.890Z,37.10
2019-01-21T16:48:37.955Z,30.50
2019-01-21T16:49:37.879Z,25.10
2019-01-21T16:50:37.951Z,36.90
2019-01-21T16:51:37.844Z,37.90
2019-01-21T16:52:37.885Z,35.30
2019-01-21T16:53:37.822Z,34.00
2019-01-21T16:54:38.869Z,26.60
2019-01-21T16:55:37.820Z,29.70
2019-01-21T16:56:37.930Z,30.40
2019-01-21T16:57:37.783Z,33.70
2019-01-21T16:58:37.896Z,31.40
2019-01-21T16:59:37.765Z,31.00
2019-01-21T17:00:40.045Z,33.90
2019-01-21T17:01:37.728Z,31.30
2019-01-21T17:02:39.785Z,31.00
2019-01-21T17:03:37.713Z,31.10
2019-01-21T17:04:37.795Z,32.00
2019-01-21T17:05:37.712Z,27.90
2019-01-21T17:06:39.478Z,33.30
2019-01-21T17:07:37.765Z,31.20
2019-01-21T17:08:37.726Z,34.40
2019-01-21T17:09:37.663Z,36.90
2019-01-21T17:10:39.326Z,40.70
2019-01-21T17:11:37.636Z,29.80
2019-01-21T17:12:37.660Z,32.30
2019-01-21T17:13:37.623Z,28.50
2019-01-21T17:14:37.628Z,19.70
2019-01-21T17:15:37.582Z,29.80
2019-01-21T17:16:37.630Z,27.20
2019-01-21T17:17:37.564Z,24.10
2019-01-21T17:18:37.679Z,22.50
2019-01-21T17:19:37.543Z,21.40
2019-01-21T17:20:37.790Z,21.00
2019-01-21T17:21:37.637Z,20.40
2019-01-21T17:22:37.755Z,23.30
2019-01-21T17:23:37.560Z,28.70
2019-01-21T17:24:37.666Z,27.40
2019-01-21T17:25:37.472Z,30.30
2019-01-21T17:26:37.698Z,39.60
2019-01-21T17:27:37.540Z,39.20
2019-01-21T17:28:37.626Z,42.40
2019-01-21T17:29:37.428Z,34.50
2019-01-21T17:30:37.484Z,48.70
2019-01-21T17:31:37.422Z,46.10
2019-01-21T17:32:37.445Z,61.40
2019-01-21T17:33:37.378Z,51.00
2019-01-21T17:34:37.412Z,46.70
2019-01-21T17:35:37.465Z,41.50
2019-01-21T17:36:37.380Z,41.50
2019-01-21T17:37:37.478Z,41.80
2019-01-21T17:38:40.492Z,45.00
2019-01-21T17:39:37.350Z,39.60
2019-01-21T17:40:37.419Z,34.60
2019-01-21T17:41:37.312Z,43.90
2019-01-21T17:42:37.391Z,46.30
2019-01-21T17:43:37.271Z,40.80
2019-01-21T17:44:37.361Z,43.10
2019-01-21T17:45:37.247Z,41.80
2019-01-21T17:46:37.366Z,44.30
2019-01-21T17:47:37.362Z,47.80
2019-01-21T17:48:37.313Z,42.30
2019-01-21T17:49:37.489Z,46.00
2019-01-21T17:50:37.244Z,45.90
2019-01-21T17:51:37.330Z,44.50
2019-01-21T17:52:38.108Z,50.20
2019-01-21T17:53:38.168Z,45.80
2019-01-21T17:54:37.201Z,46.30
2019-01-21T17:55:37.142Z,44.30
2019-01-21T17:56:37.679Z,43.40
2019-01-21T17:57:37.124Z,46.90
2019-01-21T17:58:37.208Z,43.30
2019-01-21T17:59:37.130Z,37.00
2019-01-21T18:00:37.224Z,37.90
2019-01-21T18:01:39.331Z,33.30
2019-01-21T18:02:37.079Z,33.70
2019-01-21T18:03:37.058Z,31.10
2019-01-21T18:04:37.071Z,27.50
2019-01-21T18:05:37.170Z,33.40
2019-01-21T18:06:37.057Z,35.50
2019-01-21T18:07:37.145Z,34.20
2019-01-21T18:08:37.062Z,36.10
2019-01-21T18:09:36.994Z,33.10
2019-01-21T18:10:36.999Z,33.70
2019-01-21T18:11:41.279Z,36.00
2019-01-21T18:12:37.008Z,34.10
2019-01-21T18:13:37.050Z,34.80
2019-01-21T18:14:36.953Z,36.20
2019-01-21T18:15:36.926Z,38.30
2019-01-21T18:16:36.929Z,35.30
2019-01-21T18:17:36.999Z,37.20
2019-01-21T18:18:36.900Z,37.10
2019-01-21T18:19:36.881Z,41.40
2019-01-21T18:20:36.879Z,32.90
2019-01-21T18:21:40.238Z,39.40
2019-01-21T18:22:36.881Z,45.10
2019-01-21T18:23:36.843Z,37.10
2019-01-21T18:24:36.840Z,32.90
2019-01-21T18:25:36.814Z,34.20
2019-01-21T18:26:36.898Z,35.20
2019-01-21T18:27:36.860Z,40.20
2019-01-21T18:28:36.869Z,36.40
2019-01-21T18:29:36.790Z,29.50
2019-01-21T18:30:36.834Z,35.30
2019-01-21T18:31:36.749Z,42.40
2019-01-21T18:32:36.841Z,44.40
2019-01-21T18:33:36.756Z,45.60
2019-01-21T18:34:36.770Z,43.50
2019-01-21T18:35:36.717Z,47.40
2019-01-21T18:36:36.746Z,43.80
2019-01-21T18:37:36.711Z,44.40
2019-01-21T18:38:36.705Z,40.50
2019-01-21T18:39:36.661Z,41.30
2019-01-21T18:40:36.776Z,40.90
2019-01-21T18:41:36.646Z,45.80
2019-01-21T18:42:36.722Z,41.80
2019-01-21T18:43:36.629Z,42.80
2019-01-21T18:44:36.715Z,39.20
2019-01-21T18:45:36.616Z,38.00
2019-01-21T18:46:36.688Z,40.10
2019-01-21T18:47:36.683Z,37.80
2019-01-21T18:48:37.679Z,41.90
2019-01-21T18:49:36.631Z,44.10
2019-01-21T18:50:36.618Z,36.50
2019-01-21T18:51:36.680Z,39.60
2019-01-21T18:52:37.610Z,48.90
2019-01-21T18:53:37.510Z,43.60
2019-01-21T18:54:38.605Z,43.70
2019-01-21T18:55:36.513Z,39.00
2019-01-21T18:56:36.524Z,33.30
2019-01-21T18:57:36.482Z,33.50
2019-01-21T18:58:36.530Z,32.90
2019-01-21T18:59:36.446Z,30.80
2019-01-21T19:00:36.574Z,29.00
2019-01-21T19:01:36.434Z,33.50
2019-01-21T19:02:36.531Z,33.30
2019-01-21T19:03:36.430Z,34.30
2019-01-21T19:04:36.501Z,29.60
2019-01-21T19:05:36.375Z,27.70
2019-01-21T19:06:36.385Z,26.40
2019-01-21T19:07:36.359Z,27.70
2019-01-21T19:08:36.430Z,27.90
2019-01-21T19:09:36.350Z,24.20
2019-01-21T19:10:36.509Z,25.20
2019-01-21T19:11:36.325Z,29.30
2019-01-21T19:12:36.382Z,27.20
2019-01-21T19:13:36.347Z,27.10
2019-01-21T19:14:36.344Z,26.00
2019-01-21T19:15:36.284Z,30.30
2019-01-21T19:16:37.332Z,30.90
2019-01-21T19:17:36.262Z,38.20
2019-01-21T19:18:36.323Z,35.30
2019-01-21T19:19:36.228Z,43.60
2019-01-21T19:20:36.230Z,56.60
2019-01-21T19:21:36.211Z,62.20
2019-01-21T19:22:36.214Z,65.50
2019-01-21T19:23:36.207Z,63.80
2019-01-21T19:24:36.282Z,59.60
2019-01-21T19:25:36.158Z,62.60
2019-01-21T19:26:36.252Z,85.30
2019-01-21T19:27:36.131Z,84.80
2019-01-21T19:28:36.252Z,83.40
2019-01-21T19:29:36.166Z,55.40
2019-01-21T19:30:36.188Z,77.50
2019-01-21T19:31:36.147Z,97.10
2019-01-21T19:32:36.156Z,83.50
2019-01-21T19:33:36.114Z,63.30
2019-01-21T19:34:37.192Z,40.30
2019-01-21T19:35:36.043Z,55.80
2019-01-21T19:36:36.102Z,48.10
2019-01-21T19:37:36.032Z,38.80
2019-01-21T19:38:37.091Z,34.10
2019-01-21T19:39:36.069Z,26.40
2019-01-21T19:40:36.028Z,28.10
2019-01-21T19:41:35.991Z,25.50
2019-01-21T19:42:36.114Z,23.80
2019-01-21T19:43:36.009Z,24.20
2019-01-21T19:44:36.007Z,23.20
2019-01-21T19:45:35.946Z,23.00
2019-01-21T19:46:36.043Z,23.50
2019-01-21T19:47:35.914Z,23.50
2019-01-21T19:48:36.009Z,24.80
2019-01-21T19:49:35.940Z,24.30
2019-01-21T19:50:36.008Z,25.10
2019-01-21T19:51:35.956Z,23.30
2019-01-21T19:52:35.939Z,22.80
2019-01-21T19:53:35.869Z,22.90
2019-01-21T19:54:35.967Z,22.60
2019-01-21T19:55:35.830Z,22.80
2019-01-21T19:56:35.901Z,31.50
2019-01-21T19:57:35.799Z,32.10
2019-01-21T19:58:35.846Z,37.10
2019-01-21T19:59:35.837Z,44.10
2019-01-21T20:00:35.814Z,46.40
2019-01-21T20:01:35.767Z,37.40
2019-01-21T20:02:35.780Z,38.10
2019-01-21T20:03:35.733Z,37.70
2019-01-21T20:04:35.813Z,46.20
2019-01-21T20:05:35.712Z,43.90
2019-01-21T20:06:35.828Z,42.50
2019-01-21T20:07:35.699Z,47.90
2019-01-21T20:08:35.786Z,45.60
2019-01-21T20:09:35.717Z,45.10
2019-01-21T20:10:35.759Z,43.80
2019-01-21T20:11:35.652Z,45.20
2019-01-21T20:12:35.723Z,40.10
2019-01-21T20:13:35.627Z,41.80
2019-01-21T20:14:35.705Z,41.70
